sensor_id;sensor_type;location;lat;lon;timestamp;pressure;altitude;pressure_sealevel;temperature;humidity
23118;BME280;11728;50.624;6.014;2023-07-02T00:01:58;97635.44;;;18.51;62.20
23118;BME280;11728;50.624;6.014;2023-07-02T00:07:19;97627.03;;;18.43;62.48
23118;BME280;11728;50.624;6.014;2023-07-02T00:12:40;97631.56;;;18.42;62.53
23118;BME280;11728;50.624;6.014;2023-07-02T00:18:00;97635.25;;;18.40;62.94
23118;BME280;11728;50.624;6.014;2023-07-02T00:23:21;97627.22;;;18.40;62.63
23118;BME280;11728;50.624;6.014;2023-07-02T00:28:42;97627.56;;;18.35;63.12
23118;BME280;11728;50.624;6.014;2023-07-02T00:34:03;97622.56;;;18.29;63.33
23118;BME280;11728;50.624;6.014;2023-07-02T00:39:24;97619.81;;;18.31;63.26
23118;BME280;11728;50.624;6.014;2023-07-02T00:44:45;97625.06;;;18.18;63.57
23118;BME280;11728;50.624;6.014;2023-07-02T00:50:06;97626.28;;;18.13;63.79
23118;BME280;11728;50.624;6.014;2023-07-02T00:55:28;97624.97;;;18.06;64.03
23118;BME280;11728;50.624;6.014;2023-07-02T01:00:48;97626.69;;;18.07;63.98
23118;BME280;11728;50.624;6.014;2023-07-02T01:06:09;97626.78;;;18.05;64.14
23118;BME280;11728;50.624;6.014;2023-07-02T01:11:32;97629.81;;;17.99;64.41
23118;BME280;11728;50.624;6.014;2023-07-02T01:16:55;97627.63;;;17.92;64.75
23118;BME280;11728;50.624;6.014;2023-07-02T01:22:18;97617.91;;;17.91;64.43
23118;BME280;11728;50.624;6.014;2023-07-02T01:27:39;97622.19;;;17.93;64.71
23118;BME280;11728;50.624;6.014;2023-07-02T01:33:00;97619.06;;;17.87;64.73
23118;BME280;11728;50.624;6.014;2023-07-02T01:38:21;97610.84;;;17.76;65.11
23118;BME280;11728;50.624;6.014;2023-07-02T01:43:42;97612.34;;;17.66;65.25
23118;BME280;11728;50.624;6.014;2023-07-02T01:49:03;97612.72;;;17.60;66.02
23118;BME280;11728;50.624;6.014;2023-07-02T01:54:26;97619.78;;;17.61;65.97
23118;BME280;11728;50.624;6.014;2023-07-02T01:59:50;97621.91;;;17.56;66.13
23118;BME280;11728;50.624;6.014;2023-07-02T02:05:11;97625.66;;;17.38;66.90
23118;BME280;11728;50.624;6.014;2023-07-02T02:10:31;97635.00;;;17.31;67.05
23118;BME280;11728;50.624;6.014;2023-07-02T02:15:54;97642.22;;;17.29;67.34
23118;BME280;11728;50.624;6.014;2023-07-02T02:21:15;97635.19;;;17.28;67.29
23118;BME280;11728;50.624;6.014;2023-07-02T02:26:35;97643.00;;;17.31;67.49
23118;BME280;11728;50.624;6.014;2023-07-02T02:31:56;97656.34;;;17.31;67.47
23118;BME280;11728;50.624;6.014;2023-07-02T02:37:17;97652.72;;;17.32;67.83
23118;BME280;11728;50.624;6.014;2023-07-02T02:42:38;97645.22;;;17.23;68.17
23118;BME280;11728;50.624;6.014;2023-07-02T02:47:59;97656.22;;;17.03;68.55
23118;BME280;11728;50.624;6.014;2023-07-02T02:53:20;97648.06;;;17.06;69.13
23118;BME280;11728;50.624;6.014;2023-07-02T02:58:41;97655.50;;;17.15;69.03
23118;BME280;11728;50.624;6.014;2023-07-02T03:04:02;97654.63;;;17.30;68.70
23118;BME280;11728;50.624;6.014;2023-07-02T03:09:23;97655.81;;;17.40;68.57
23118;BME280;11728;50.624;6.014;2023-07-02T03:14:43;97659.03;;;17.45;68.23
23118;BME280;11728;50.624;6.014;2023-07-02T03:20:05;97656.31;;;17.47;68.35
23118;BME280;11728;50.624;6.014;2023-07-02T03:25:28;97653.53;;;17.48;68.48
23118;BME280;11728;50.624;6.014;2023-07-02T03:30:49;97650.66;;;17.51;68.34
23118;BME280;11728;50.624;6.014;2023-07-02T03:36:09;97651.72;;;17.49;68.68
23118;BME280;11728;50.624;6.014;2023-07-02T03:41:31;97654.38;;;17.49;68.74
23118;BME280;11728;50.624;6.014;2023-07-02T03:46:51;97658.88;;;17.48;68.90
23118;BME280;11728;50.624;6.014;2023-07-02T03:52:12;97664.13;;;17.50;69.17
23118;BME280;11728;50.624;6.014;2023-07-02T03:57:33;97668.34;;;17.54;68.87
23118;BME280;11728;50.624;6.014;2023-07-02T04:02:53;97677.97;;;17.56;69.03
23118;BME280;11728;50.624;6.014;2023-07-02T04:08:15;97685.78;;;17.59;69.02
23118;BME280;11728;50.624;6.014;2023-07-02T04:13:35;97676.81;;;17.60;69.15
23118;BME280;11728;50.624;6.014;2023-07-02T04:18:56;97687.78;;;17.56;69.27
23118;BME280;11728;50.624;6.014;2023-07-02T04:24:17;97701.53;;;17.64;69.60
23118;BME280;11728;50.624;6.014;2023-07-02T04:29:38;97712.31;;;17.62;70.05
23118;BME280;11728;50.624;6.014;2023-07-02T04:34:58;97704.19;;;17.64;70.10
23118;BME280;11728;50.624;6.014;2023-07-02T04:40:19;97714.72;;;17.67;70.16
23118;BME280;11728;50.624;6.014;2023-07-02T04:45:40;97721.16;;;17.63;70.51
23118;BME280;11728;50.624;6.014;2023-07-02T04:51:00;97721.84;;;17.66;70.28
23118;BME280;11728;50.624;6.014;2023-07-02T04:56:21;97724.34;;;17.69;70.60
23118;BME280;11728;50.624;6.014;2023-07-02T05:01:42;97727.97;;;17.68;70.67
23118;BME280;11728;50.624;6.014;2023-07-02T05:07:05;97729.50;;;17.72;71.00
23118;BME280;11728;50.624;6.014;2023-07-02T05:12:26;97727.31;;;17.78;70.74
23118;BME280;11728;50.624;6.014;2023-07-02T05:17:46;97737.72;;;17.83;70.94
23118;BME280;11728;50.624;6.014;2023-07-02T05:23:07;97738.91;;;17.93;70.57
23118;BME280;11728;50.624;6.014;2023-07-02T05:28:28;97738.69;;;17.96;70.63
23118;BME280;11728;50.624;6.014;2023-07-02T05:33:48;97745.09;;;17.93;70.76
23118;BME280;11728;50.624;6.014;2023-07-02T05:39:09;97751.88;;;17.99;70.86
23118;BME280;11728;50.624;6.014;2023-07-02T05:44:30;97756.19;;;18.01;71.17
23118;BME280;11728;50.624;6.014;2023-07-02T05:49:50;97764.91;;;18.19;70.62
23118;BME280;11728;50.624;6.014;2023-07-02T05:55:11;97761.31;;;18.34;70.49
23118;BME280;11728;50.624;6.014;2023-07-02T06:00:32;97769.34;;;18.48;70.18
23118;BME280;11728;50.624;6.014;2023-07-02T06:05:53;97765.78;;;18.75;69.23
23118;BME280;11728;50.624;6.014;2023-07-02T06:11:14;97774.88;;;18.86;68.61
23118;BME280;11728;50.624;6.014;2023-07-02T06:16:35;97778.00;;;19.07;68.34
23118;BME280;11728;50.624;6.014;2023-07-02T06:21:55;97782.28;;;19.23;67.33
23118;BME280;11728;50.624;6.014;2023-07-02T06:27:16;97790.84;;;19.42;66.90
23118;BME280;11728;50.624;6.014;2023-07-02T06:32:37;97805.03;;;19.56;65.96
23118;BME280;11728;50.624;6.014;2023-07-02T06:37:58;97796.28;;;19.67;65.63
23118;BME280;11728;50.624;6.014;2023-07-02T06:43:19;97790.63;;;19.98;65.19
23118;BME280;11728;50.624;6.014;2023-07-02T06:48:40;97805.47;;;20.28;64.37
23118;BME280;11728;50.624;6.014;2023-07-02T06:54:00;97797.75;;;20.36;63.36
23118;BME280;11728;50.624;6.014;2023-07-02T06:59:22;97810.66;;;20.43;62.72
23118;BME280;11728;50.624;6.014;2023-07-02T07:04:43;97815.69;;;20.35;62.05
23118;BME280;11728;50.624;6.014;2023-07-02T07:10:04;97817.53;;;20.72;61.29
23118;BME280;11728;50.624;6.014;2023-07-02T07:15:25;97816.03;;;20.81;61.26
23118;BME280;11728;50.624;6.014;2023-07-02T07:20:46;97826.94;;;21.27;59.33
23118;BME280;11728;50.624;6.014;2023-07-02T07:26:06;97819.47;;;21.56;58.07
23118;BME280;11728;50.624;6.014;2023-07-02T07:31:27;97819.06;;;21.72;56.80
23118;BME280;11728;50.624;6.014;2023-07-02T07:36:48;97823.75;;;21.81;56.00
23118;BME280;11728;50.624;6.014;2023-07-02T07:42:08;97826.94;;;21.86;55.29
23118;BME280;11728;50.624;6.014;2023-07-02T07:47:29;97821.50;;;21.99;55.72
23118;BME280;11728;50.624;6.014;2023-07-02T07:52:50;97823.44;;;22.44;54.71
23118;BME280;11728;50.624;6.014;2023-07-02T07:58:11;97825.31;;;22.76;53.87
23118;BME280;11728;50.624;6.014;2023-07-02T08:03:32;97839.13;;;22.60;53.67
23118;BME280;11728;50.624;6.014;2023-07-02T08:08:53;97838.16;;;22.61;53.93
23118;BME280;11728;50.624;6.014;2023-07-02T08:14:13;97838.88;;;23.30;51.49
23118;BME280;11728;50.624;6.014;2023-07-02T08:19:34;97843.75;;;23.15;50.73
23118;BME280;11728;50.624;6.014;2023-07-02T08:24:55;97837.75;;;24.08;49.50
23118;BME280;11728;50.624;6.014;2023-07-02T08:30:15;97852.19;;;24.18;48.82
23118;BME280;11728;50.624;6.014;2023-07-02T08:35:36;97856.16;;;24.34;48.75
23118;BME280;11728;50.624;6.014;2023-07-02T08:40:57;97867.19;;;24.00;49.54
23118;BME280;11728;50.624;6.014;2023-07-02T08:46:18;97861.81;;;24.00;48.55
23118;BME280;11728;50.624;6.014;2023-07-02T08:51:38;97867.16;;;23.47;49.09
23118;BME280;11728;50.624;6.014;2023-07-02T08:56:59;97873.22;;;24.04;49.10
23118;BME280;11728;50.624;6.014;2023-07-02T09:02:34;97876.38;;;24.71;47.80
23118;BME280;11728;50.624;6.014;2023-07-02T09:07:55;97868.28;;;25.32;47.22
23118;BME280;11728;50.624;6.014;2023-07-02T09:13:15;97869.50;;;25.88;45.77
23118;BME280;11728;50.624;6.014;2023-07-02T09:18:37;97872.91;;;25.21;45.20
23118;BME280;11728;50.624;6.014;2023-07-02T09:23:57;97891.66;;;24.82;45.99
23118;BME280;11728;50.624;6.014;2023-07-02T09:29:26;97884.31;;;24.83;45.40
23118;BME280;11728;50.624;6.014;2023-07-02T09:34:49;97875.94;;;24.86;45.23
23118;BME280;11728;50.624;6.014;2023-07-02T09:40:10;97887.19;;;24.51;46.18
23118;BME280;11728;50.624;6.014;2023-07-02T09:45:31;97885.41;;;23.65;46.99
23118;BME280;11728;50.624;6.014;2023-07-02T09:50:53;97892.28;;;22.69;48.69
23118;BME280;11728;50.624;6.014;2023-07-02T09:56:14;97897.00;;;22.55;49.55
23118;BME280;11728;50.624;6.014;2023-07-02T10:01:35;97890.72;;;24.09;47.94
23118;BME280;11728;50.624;6.014;2023-07-02T10:06:57;97888.22;;;25.11;46.25
23118;BME280;11728;50.624;6.014;2023-07-02T10:12:19;97880.69;;;26.23;44.11
23118;BME280;11728;50.624;6.014;2023-07-02T10:17:40;97887.47;;;25.89;43.29
23118;BME280;11728;50.624;6.014;2023-07-02T10:23:00;97888.22;;;25.11;43.78
23118;BME280;11728;50.624;6.014;2023-07-02T10:28:22;97897.31;;;24.27;44.59
23118;BME280;11728;50.624;6.014;2023-07-02T10:33:47;97900.72;;;23.54;45.46
23118;BME280;11728;50.624;6.014;2023-07-02T10:39:08;97886.63;;;23.72;45.96
23118;BME280;11728;50.624;6.014;2023-07-02T10:44:29;97870.13;;;26.20;42.86
23118;BME280;11728;50.624;6.014;2023-07-02T10:49:49;97862.97;;;27.68;38.94
23118;BME280;11728;50.624;6.014;2023-07-02T10:55:10;97875.13;;;28.80;36.73
23118;BME280;11728;50.624;6.014;2023-07-02T11:00:50;97871.56;;;29.22;34.92
23118;BME280;11728;50.624;6.014;2023-07-02T11:06:11;97873.91;;;29.67;35.03
23118;BME280;11728;50.624;6.014;2023-07-02T11:11:32;97867.66;;;30.89;32.10
23118;BME280;11728;50.624;6.014;2023-07-02T11:16:57;97878.72;;;31.51;30.80
23118;BME280;11728;50.624;6.014;2023-07-02T11:22:17;97877.75;;;29.90;31.52
23118;BME280;11728;50.624;6.014;2023-07-02T11:27:39;97881.72;;;28.77;32.54
23118;BME280;11728;50.624;6.014;2023-07-02T11:33:00;97888.97;;;27.98;33.51
23118;BME280;11728;50.624;6.014;2023-07-02T11:38:21;97882.63;;;27.80;33.72
23118;BME280;11728;50.624;6.014;2023-07-02T11:43:42;97898.78;;;27.26;34.44
23118;BME280;11728;50.624;6.014;2023-07-02T11:49:03;97894.84;;;27.02;35.23
23118;BME280;11728;50.624;6.014;2023-07-02T11:54:30;97896.97;;;26.70;35.24
23118;BME280;11728;50.624;6.014;2023-07-02T11:59:51;97903.78;;;26.36;35.59
23118;BME280;11728;50.624;6.014;2023-07-02T12:05:12;97903.47;;;25.71;35.93
23118;BME280;11728;50.624;6.014;2023-07-02T12:10:33;97900.84;;;26.48;35.84
23118;BME280;11728;50.624;6.014;2023-07-02T12:15:54;97893.69;;;27.96;34.51
23118;BME280;11728;50.624;6.014;2023-07-02T12:21:15;97897.69;;;28.28;33.37
23118;BME280;11728;50.624;6.014;2023-07-02T12:26:39;97894.25;;;28.87;32.85
23118;BME280;11728;50.624;6.014;2023-07-02T12:32:04;97889.56;;;28.97;33.39
23118;BME280;11728;50.624;6.014;2023-07-02T12:37:25;97895.84;;;28.63;32.76
23118;BME280;11728;50.624;6.014;2023-07-02T12:42:46;97900.69;;;27.98;33.84
23118;BME280;11728;50.624;6.014;2023-07-02T12:48:07;97900.25;;;29.16;31.80
23118;BME280;11728;50.624;6.014;2023-07-02T12:53:29;97887.28;;;31.01;30.75
23118;BME280;11728;50.624;6.014;2023-07-02T12:58:50;97898.16;;;30.69;29.87
23118;BME280;11728;50.624;6.014;2023-07-02T13:04:11;97887.78;;;31.12;29.72
23118;BME280;11728;50.624;6.014;2023-07-02T13:09:32;97897.44;;;30.51;29.49
23118;BME280;11728;50.624;6.014;2023-07-02T13:14:53;97896.28;;;29.11;30.11
23118;BME280;11728;50.624;6.014;2023-07-02T13:20:14;97895.94;;;28.88;31.15
23118;BME280;11728;50.624;6.014;2023-07-02T13:25:35;97901.56;;;29.30;31.89
23118;BME280;11728;50.624;6.014;2023-07-02T13:30:55;97897.31;;;28.92;30.42
23118;BME280;11728;50.624;6.014;2023-07-02T13:36:16;97899.78;;;28.69;30.96
23118;BME280;11728;50.624;6.014;2023-07-02T13:41:37;97886.69;;;28.99;31.43
23118;BME280;11728;50.624;6.014;2023-07-02T13:46:58;97902.13;;;28.46;30.96
23118;BME280;11728;50.624;6.014;2023-07-02T13:52:18;97899.47;;;27.83;32.04
23118;BME280;11728;50.624;6.014;2023-07-02T13:57:39;97892.88;;;27.49;32.86
23118;BME280;11728;50.624;6.014;2023-07-02T14:03:00;97905.09;;;27.17;32.97
23118;BME280;11728;50.624;6.014;2023-07-02T14:08:22;97893.22;;;27.37;33.46
23118;BME280;11728;50.624;6.014;2023-07-02T14:13:42;97891.28;;;27.11;33.48
23118;BME280;11728;50.624;6.014;2023-07-02T14:19:03;97904.28;;;26.69;34.25
23118;BME280;11728;50.624;6.014;2023-07-02T14:24:24;97891.72;;;27.06;34.14
23118;BME280;11728;50.624;6.014;2023-07-02T14:29:45;97883.50;;;27.34;35.23
23118;BME280;11728;50.624;6.014;2023-07-02T14:35:08;97892.44;;;27.63;34.17
23118;BME280;11728;50.624;6.014;2023-07-02T14:40:28;97887.78;;;27.73;33.92
23118;BME280;11728;50.624;6.014;2023-07-02T14:45:51;97873.16;;;27.84;34.16
23118;BME280;11728;50.624;6.014;2023-07-02T14:51:12;97872.47;;;28.08;34.25
23118;BME280;11728;50.624;6.014;2023-07-02T14:56:34;97872.81;;;27.96;34.06
23118;BME280;11728;50.624;6.014;2023-07-02T15:01:56;97878.84;;;27.54;34.50
23118;BME280;11728;50.624;6.014;2023-07-02T15:07:17;97883.69;;;27.14;34.37
23118;BME280;11728;50.624;6.014;2023-07-02T15:12:37;97873.84;;;27.13;34.89
23118;BME280;11728;50.624;6.014;2023-07-02T15:17:58;97876.69;;;27.21;35.51
23118;BME280;11728;50.624;6.014;2023-07-02T15:23:20;97870.16;;;27.50;35.04
23118;BME280;11728;50.624;6.014;2023-07-02T15:28:40;97869.31;;;27.50;34.58
23118;BME280;11728;50.624;6.014;2023-07-02T15:34:01;97865.16;;;26.91;35.74
23118;BME280;11728;50.624;6.014;2023-07-02T15:39:22;97867.31;;;26.68;35.77
23118;BME280;11728;50.624;6.014;2023-07-02T15:44:45;97854.34;;;26.62;36.00
23118;BME280;11728;50.624;6.014;2023-07-02T15:50:06;97854.22;;;26.54;35.86
23118;BME280;11728;50.624;6.014;2023-07-02T15:55:27;97848.06;;;26.34;36.22
23118;BME280;11728;50.624;6.014;2023-07-02T16:00:48;97853.84;;;26.10;36.85
23118;BME280;11728;50.624;6.014;2023-07-02T16:06:10;97855.78;;;26.47;36.88
23118;BME280;11728;50.624;6.014;2023-07-02T16:11:32;97858.47;;;26.57;37.36
23118;BME280;11728;50.624;6.014;2023-07-02T16:16:54;97857.44;;;26.11;37.07
23118;BME280;11728;50.624;6.014;2023-07-02T16:22:15;97856.31;;;25.74;37.58
23118;BME280;11728;50.624;6.014;2023-07-02T16:27:36;97864.84;;;25.60;38.04
23118;BME280;11728;50.624;6.014;2023-07-02T16:32:57;97857.50;;;25.42;38.37
23118;BME280;11728;50.624;6.014;2023-07-02T16:38:17;97862.75;;;25.13;38.97
23118;BME280;11728;50.624;6.014;2023-07-02T16:43:38;97859.69;;;25.27;39.17
23118;BME280;11728;50.624;6.014;2023-07-02T16:48:59;97857.34;;;25.43;39.89
23118;BME280;11728;50.624;6.014;2023-07-02T16:54:21;97844.94;;;25.31;39.22
23118;BME280;11728;50.624;6.014;2023-07-02T16:59:42;97849.31;;;25.02;39.04
23118;BME280;11728;50.624;6.014;2023-07-02T17:05:03;97850.75;;;25.06;39.22
23118;BME280;11728;50.624;6.014;2023-07-02T17:10:23;97844.81;;;25.12;39.40
23118;BME280;11728;50.624;6.014;2023-07-02T17:15:44;97849.25;;;25.13;38.80
23118;BME280;11728;50.624;6.014;2023-07-02T17:21:06;97843.38;;;24.68;38.48
23118;BME280;11728;50.624;6.014;2023-07-02T17:26:27;97853.53;;;24.55;39.22
23118;BME280;11728;50.624;6.014;2023-07-02T17:31:50;97843.78;;;24.43;39.28
23118;BME280;11728;50.624;6.014;2023-07-02T17:37:11;97845.16;;;24.26;39.67
23118;BME280;11728;50.624;6.014;2023-07-02T17:42:35;97834.50;;;24.25;40.18
23118;BME280;11728;50.624;6.014;2023-07-02T17:47:55;97846.16;;;24.25;39.99
23118;BME280;11728;50.624;6.014;2023-07-02T17:53:18;97840.06;;;24.12;40.29
23118;BME280;11728;50.624;6.014;2023-07-02T17:58:38;97841.34;;;23.98;40.37
23118;BME280;11728;50.624;6.014;2023-07-02T18:10:16;97829.97;;;23.72;40.61
23118;BME280;11728;50.624;6.014;2023-07-02T18:15:37;97834.06;;;23.56;40.31
23118;BME280;11728;50.624;6.014;2023-07-02T18:20:58;97829.06;;;23.29;40.71
23118;BME280;11728;50.624;6.014;2023-07-02T18:26:18;97836.06;;;23.21;41.02
23118;BME280;11728;50.624;6.014;2023-07-02T18:31:39;97844.94;;;23.00;41.13
23118;BME280;11728;50.624;6.014;2023-07-02T18:37:00;97838.34;;;22.82;41.45
23118;BME280;11728;50.624;6.014;2023-07-02T18:42:21;97831.94;;;22.83;41.48
23118;BME280;11728;50.624;6.014;2023-07-02T18:47:43;97839.53;;;22.78;41.40
23118;BME280;11728;50.624;6.014;2023-07-02T18:53:04;97843.56;;;22.61;42.03
23118;BME280;11728;50.624;6.014;2023-07-02T18:58:26;97837.03;;;22.53;42.30
23118;BME280;11728;50.624;6.014;2023-07-02T19:03:47;97832.59;;;22.41;42.47
23118;BME280;11728;50.624;6.014;2023-07-02T19:09:08;97823.94;;;22.25;43.02
23118;BME280;11728;50.624;6.014;2023-07-02T19:14:29;97827.72;;;22.12;43.41
23118;BME280;11728;50.624;6.014;2023-07-02T19:19:50;97834.69;;;22.14;43.43
23118;BME280;11728;50.624;6.014;2023-07-02T19:25:11;97835.03;;;22.10;43.92
23118;BME280;11728;50.624;6.014;2023-07-02T19:30:32;97839.50;;;21.98;44.33
23118;BME280;11728;50.624;6.014;2023-07-02T19:35:52;97835.16;;;21.85;44.22
23118;BME280;11728;50.624;6.014;2023-07-02T19:41:13;97838.34;;;21.67;44.75
23118;BME280;11728;50.624;6.014;2023-07-02T19:46:34;97843.84;;;21.53;45.12
23118;BME280;11728;50.624;6.014;2023-07-02T19:51:55;97853.78;;;21.40;45.60
23118;BME280;11728;50.624;6.014;2023-07-02T19:57:16;97852.59;;;21.31;45.99
23118;BME280;11728;50.624;6.014;2023-07-02T20:02:37;97872.28;;;21.32;46.06
23118;BME280;11728;50.624;6.014;2023-07-02T20:08:00;97879.38;;;21.33;46.22
23118;BME280;11728;50.624;6.014;2023-07-02T20:13:21;97891.53;;;21.26;46.45
23118;BME280;11728;50.624;6.014;2023-07-02T20:18:42;97906.56;;;21.16;46.64
23118;BME280;11728;50.624;6.014;2023-07-02T20:24:03;97919.03;;;20.92;46.05
23118;BME280;11728;50.624;6.014;2023-07-02T20:29:24;97914.59;;;20.66;45.61
23118;BME280;11728;50.624;6.014;2023-07-02T20:34:46;97936.22;;;20.38;45.46
23118;BME280;11728;50.624;6.014;2023-07-02T20:40:10;97932.81;;;20.22;45.29
23118;BME280;11728;50.624;6.014;2023-07-02T20:45:38;97940.53;;;20.14;45.15
23118;BME280;11728;50.624;6.014;2023-07-02T20:51:02;97949.34;;;20.03;44.78
23118;BME280;11728;50.624;6.014;2023-07-02T20:56:22;97955.13;;;19.97;44.78
23118;BME280;11728;50.624;6.014;2023-07-02T21:01:43;97962.75;;;19.89;44.65
23118;BME280;11728;50.624;6.014;2023-07-02T21:07:05;97958.00;;;19.80;44.31
23118;BME280;11728;50.624;6.014;2023-07-02T21:12:25;97979.47;;;19.66;44.20
23118;BME280;11728;50.624;6.014;2023-07-02T21:17:49;97979.28;;;19.55;44.51
23118;BME280;11728;50.624;6.014;2023-07-02T21:23:10;97975.19;;;19.35;44.95
23118;BME280;11728;50.624;6.014;2023-07-02T21:28:31;97977.13;;;19.04;45.41
23118;BME280;11728;50.624;6.014;2023-07-02T21:33:52;97978.13;;;18.74;45.84
23118;BME280;11728;50.624;6.014;2023-07-02T21:39:13;97973.00;;;18.55;45.98
23118;BME280;11728;50.624;6.014;2023-07-02T21:44:33;97981.13;;;18.54;46.11
23118;BME280;11728;50.624;6.014;2023-07-02T21:49:54;97967.84;;;18.52;46.26
23118;BME280;11728;50.624;6.014;2023-07-02T21:55:15;97960.78;;;18.52;46.44
23118;BME280;11728;50.624;6.014;2023-07-02T22:00:36;97964.03;;;18.56;46.66
23118;BME280;11728;50.624;6.014;2023-07-02T22:05:57;97962.50;;;18.52;46.53
23118;BME280;11728;50.624;6.014;2023-07-02T22:11:17;97969.56;;;18.53;46.72
23118;BME280;11728;50.624;6.014;2023-07-02T22:16:38;97960.56;;;18.54;46.19
23118;BME280;11728;50.624;6.014;2023-07-02T22:21:59;97946.72;;;18.48;46.17
23118;BME280;11728;50.624;6.014;2023-07-02T22:27:21;97950.25;;;18.49;46.57
23118;BME280;11728;50.624;6.014;2023-07-02T22:32:43;97944.16;;;18.47;46.39
23118;BME280;11728;50.624;6.014;2023-07-02T22:38:04;97945.16;;;18.44;46.77
23118;BME280;11728;50.624;6.014;2023-07-02T22:43:25;97936.66;;;18.38;46.69
23118;BME280;11728;50.624;6.014;2023-07-02T22:48:46;97929.84;;;18.32;47.12
23118;BME280;11728;50.624;6.014;2023-07-02T22:54:07;97930.81;;;18.31;47.40
23118;BME280;11728;50.624;6.014;2023-07-02T22:59:28;97925.16;;;18.22;47.68
23118;BME280;11728;50.624;6.014;2023-07-02T23:04:49;97923.56;;;18.18;47.97
23118;BME280;11728;50.624;6.014;2023-07-02T23:10:11;97915.41;;;18.05;48.53
23118;BME280;11728;50.624;6.014;2023-07-02T23:15:36;97910.69;;;17.95;48.67
23118;BME280;11728;50.624;6.014;2023-07-02T23:20:56;97915.00;;;17.97;49.06
23118;BME280;11728;50.624;6.014;2023-07-02T23:26:17;97912.22;;;17.99;49.21
23118;BME280;11728;50.624;6.014;2023-07-02T23:31:38;97908.78;;;17.97;49.04
23118;BME280;11728;50.624;6.014;2023-07-02T23:36:59;97906.03;;;17.98;49.19
23118;BME280;11728;50.624;6.014;2023-07-02T23:42:19;97910.69;;;17.95;49.58
23118;BME280;11728;50.624;6.014;2023-07-02T23:47:40;97905.41;;;17.93;49.98
23118;BME280;11728;50.624;6.014;2023-07-02T23:53:02;97905.44;;;17.78;50.14
23118;BME280;11728;50.624;6.014;2023-07-02T23:58:23;97909.41;;;17.56;50.98
